Terminal Aerodrome Forecast
Issued by NWS Wilmington, OH

Home | Current Version | Previous Version | Text Only | Print | Product List | Glossary On
Versions: 1 2 3 4 5 6 7 8 9 10 11 12 13 14 15 16 17 18 19 20 21 22 23 24 25 26 27 28 29 30 31 32
000
FTUS41 KILN 160540
TAFCVG
TAF
KCVG 160540Z 1606/1712 21005KT P6SM OVC060
     FM161100 20011KT P6SM SCT060 SCT100
     FM161400 22012G19KT P6SM SKC
     FM162100 21008KT P6SM SKC
     FM170800 19005KT P6SM OVC250=

USA.gov is the U.S. government's official web portal to all federal, state and local government web resources and services.